sensor_id;sensor_type;location;lat;lon;timestamp;temperature;humidity
17346;DHT22;8790;53.590;10.002;2023-03-04T00:01:04;6.50;99.90
17346;DHT22;8790;53.590;10.002;2023-03-04T00:03:36;6.50;99.90
17346;DHT22;8790;53.590;10.002;2023-03-04T00:06:08;6.50;99.90
17346;DHT22;8790;53.590;10.002;2023-03-04T00:08:39;6.60;99.90
17346;DHT22;8790;53.590;10.002;2023-03-04T00:11:11;6.60;99.90
17346;DHT22;8790;53.590;10.002;2023-03-04T00:13:43;6.60;99.90
17346;DHT22;8790;53.590;10.002;2023-03-04T00:16:16;6.60;99.90
17346;DHT22;8790;53.590;10.002;2023-03-04T00:18:47;6.60;99.90
17346;DHT22;8790;53.590;10.002;2023-03-04T00:21:19;6.60;99.90
17346;DHT22;8790;53.590;10.002;2023-03-04T00:23:51;6.60;99.90
17346;DHT22;8790;53.590;10.002;2023-03-04T00:26:23;6.60;99.90
17346;DHT22;8790;53.590;10.002;2023-03-04T00:28:55;6.60;99.90
17346;DHT22;8790;53.590;10.002;2023-03-04T00:31:28;6.70;99.90
17346;DHT22;8790;53.590;10.002;2023-03-04T00:34:00;6.70;99.90
17346;DHT22;8790;53.590;10.002;2023-03-04T00:36:31;6.70;99.90
17346;DHT22;8790;53.590;10.002;2023-03-04T00:39:03;6.70;99.90
17346;DHT22;8790;53.590;10.002;2023-03-04T00:41:35;6.60;99.90
17346;DHT22;8790;53.590;10.002;2023-03-04T00:44:07;6.70;99.90
17346;DHT22;8790;53.590;10.002;2023-03-04T00:46:40;6.70;99.90
17346;DHT22;8790;53.590;10.002;2023-03-04T00:49:12;6.70;99.90
17346;DHT22;8790;53.590;10.002;2023-03-04T00:51:43;6.70;99.90
17346;DHT22;8790;53.590;10.002;2023-03-04T00:54:15;6.70;99.90
17346;DHT22;8790;53.590;10.002;2023-03-04T00:56:50;6.70;99.90
17346;DHT22;8790;53.590;10.002;2023-03-04T00:59:22;6.70;99.90
17346;DHT22;8790;53.590;10.002;2023-03-04T01:01:55;6.70;99.90
17346;DHT22;8790;53.590;10.002;2023-03-04T01:04:27;6.70;99.90
17346;DHT22;8790;53.590;10.002;2023-03-04T01:06:59;6.70;99.90
17346;DHT22;8790;53.590;10.002;2023-03-04T01:09:32;6.70;99.90
17346;DHT22;8790;53.590;10.002;2023-03-04T01:12:06;6.70;99.90
17346;DHT22;8790;53.590;10.002;2023-03-04T01:14:40;6.70;99.90
17346;DHT22;8790;53.590;10.002;2023-03-04T01:17:13;6.70;99.90
17346;DHT22;8790;53.590;10.002;2023-03-04T01:19:45;6.70;99.90
17346;DHT22;8790;53.590;10.002;2023-03-04T01:22:18;6.70;99.90
17346;DHT22;8790;53.590;10.002;2023-03-04T01:24:51;6.80;99.90
17346;DHT22;8790;53.590;10.002;2023-03-04T01:27:23;6.80;99.90
17346;DHT22;8790;53.590;10.002;2023-03-04T01:29:55;6.80;99.90
17346;DHT22;8790;53.590;10.002;2023-03-04T01:32:28;6.80;99.90
17346;DHT22;8790;53.590;10.002;2023-03-04T01:35:00;6.80;99.90
17346;DHT22;8790;53.590;10.002;2023-03-04T01:37:34;6.80;99.90
17346;DHT22;8790;53.590;10.002;2023-03-04T01:40:07;6.80;99.90
17346;DHT22;8790;53.590;10.002;2023-03-04T01:42:39;6.80;99.90
17346;DHT22;8790;53.590;10.002;2023-03-04T01:45:13;6.80;99.90
17346;DHT22;8790;53.590;10.002;2023-03-04T01:47:48;6.80;99.90
17346;DHT22;8790;53.590;10.002;2023-03-04T01:50:23;6.80;99.90
17346;DHT22;8790;53.590;10.002;2023-03-04T01:52:56;6.80;99.90
17346;DHT22;8790;53.590;10.002;2023-03-04T01:55:29;6.80;99.90
17346;DHT22;8790;53.590;10.002;2023-03-04T01:58:04;6.80;99.90
17346;DHT22;8790;53.590;10.002;2023-03-04T02:00:36;6.80;99.90
17346;DHT22;8790;53.590;10.002;2023-03-04T02:03:12;6.80;99.90
17346;DHT22;8790;53.590;10.002;2023-03-04T02:05:46;6.80;99.90
17346;DHT22;8790;53.590;10.002;2023-03-04T02:08:22;6.80;99.90
17346;DHT22;8790;53.590;10.002;2023-03-04T02:10:54;6.80;99.90
17346;DHT22;8790;53.590;10.002;2023-03-04T02:13:26;6.90;99.90
17346;DHT22;8790;53.590;10.002;2023-03-04T02:15:57;6.90;99.90
17346;DHT22;8790;53.590;10.002;2023-03-04T02:18:30;6.90;99.90
17346;DHT22;8790;53.590;10.002;2023-03-04T02:21:09;6.90;99.90
17346;DHT22;8790;53.590;10.002;2023-03-04T02:23:48;6.80;99.90
17346;DHT22;8790;53.590;10.002;2023-03-04T02:26:28;6.90;99.90
17346;DHT22;8790;53.590;10.002;2023-03-04T02:29:02;6.80;99.90
17346;DHT22;8790;53.590;10.002;2023-03-04T02:31:36;6.80;99.90
17346;DHT22;8790;53.590;10.002;2023-03-04T02:34:13;6.80;99.90
17346;DHT22;8790;53.590;10.002;2023-03-04T02:36:46;6.80;99.90
17346;DHT22;8790;53.590;10.002;2023-03-04T02:39:22;6.90;99.90
17346;DHT22;8790;53.590;10.002;2023-03-04T02:41:58;6.80;99.90
17346;DHT22;8790;53.590;10.002;2023-03-04T02:44:33;6.80;99.90
17346;DHT22;8790;53.590;10.002;2023-03-04T02:47:06;6.80;99.90
17346;DHT22;8790;53.590;10.002;2023-03-04T02:49:40;6.70;99.90
17346;DHT22;8790;53.590;10.002;2023-03-04T02:52:14;6.80;99.90
17346;DHT22;8790;53.590;10.002;2023-03-04T02:54:48;6.70;99.90
17346;DHT22;8790;53.590;10.002;2023-03-04T02:57:22;6.80;99.90
17346;DHT22;8790;53.590;10.002;2023-03-04T02:59:57;6.80;99.90
17346;DHT22;8790;53.590;10.002;2023-03-04T03:02:31;6.80;99.90
17346;DHT22;8790;53.590;10.002;2023-03-04T03:05:03;6.80;99.90
17346;DHT22;8790;53.590;10.002;2023-03-04T03:07:35;6.80;99.90
17346;DHT22;8790;53.590;10.002;2023-03-04T03:10:09;6.80;99.90
17346;DHT22;8790;53.590;10.002;2023-03-04T03:12:42;6.90;99.90
17346;DHT22;8790;53.590;10.002;2023-03-04T03:15:15;6.90;99.90
17346;DHT22;8790;53.590;10.002;2023-03-04T03:17:47;6.80;99.90
17346;DHT22;8790;53.590;10.002;2023-03-04T03:20:19;6.80;99.90
17346;DHT22;8790;53.590;10.002;2023-03-04T03:22:51;6.80;99.90
17346;DHT22;8790;53.590;10.002;2023-03-04T03:25:22;6.80;99.90
17346;DHT22;8790;53.590;10.002;2023-03-04T03:27:58;6.80;99.90
17346;DHT22;8790;53.590;10.002;2023-03-04T03:30:31;6.80;99.90
17346;DHT22;8790;53.590;10.002;2023-03-04T03:33:03;6.90;99.90
17346;DHT22;8790;53.590;10.002;2023-03-04T03:35:35;6.90;99.90
17346;DHT22;8790;53.590;10.002;2023-03-04T03:38:06;6.80;99.90
17346;DHT22;8790;53.590;10.002;2023-03-04T03:40:38;6.80;99.90
17346;DHT22;8790;53.590;10.002;2023-03-04T03:43:11;6.80;99.90
17346;DHT22;8790;53.590;10.002;2023-03-04T03:45:43;6.90;99.90
17346;DHT22;8790;53.590;10.002;2023-03-04T03:48:15;6.90;99.90
17346;DHT22;8790;53.590;10.002;2023-03-04T03:50:46;6.90;99.90
17346;DHT22;8790;53.590;10.002;2023-03-04T03:53:18;6.90;99.90
17346;DHT22;8790;53.590;10.002;2023-03-04T03:55:50;6.90;99.90
17346;DHT22;8790;53.590;10.002;2023-03-04T03:58:23;6.80;99.90
17346;DHT22;8790;53.590;10.002;2023-03-04T04:00:56;6.80;99.90
17346;DHT22;8790;53.590;10.002;2023-03-04T04:03:28;6.80;99.90
17346;DHT22;8790;53.590;10.002;2023-03-04T04:06:00;6.80;99.90
17346;DHT22;8790;53.590;10.002;2023-03-04T04:08:32;6.70;99.90
17346;DHT22;8790;53.590;10.002;2023-03-04T04:11:04;6.80;99.90
17346;DHT22;8790;53.590;10.002;2023-03-04T04:13:37;6.80;99.90
17346;DHT22;8790;53.590;10.002;2023-03-04T04:16:09;6.80;99.90
17346;DHT22;8790;53.590;10.002;2023-03-04T04:18:41;6.80;99.90
17346;DHT22;8790;53.590;10.002;2023-03-04T04:21:13;6.90;99.90
17346;DHT22;8790;53.590;10.002;2023-03-04T04:23:45;6.80;99.90
17346;DHT22;8790;53.590;10.002;2023-03-04T04:26:16;6.90;99.90
17346;DHT22;8790;53.590;10.002;2023-03-04T04:28:50;6.80;99.90
17346;DHT22;8790;53.590;10.002;2023-03-04T04:31:21;6.80;99.90
17346;DHT22;8790;53.590;10.002;2023-03-04T04:33:53;6.80;99.90
17346;DHT22;8790;53.590;10.002;2023-03-04T04:36:25;6.70;99.90
17346;DHT22;8790;53.590;10.002;2023-03-04T04:38:57;6.70;99.90
17346;DHT22;8790;53.590;10.002;2023-03-04T04:41:30;6.80;99.90
17346;DHT22;8790;53.590;10.002;2023-03-04T04:44:07;6.80;99.90
17346;DHT22;8790;53.590;10.002;2023-03-04T04:46:40;6.80;99.90
17346;DHT22;8790;53.590;10.002;2023-03-04T04:49:12;6.80;99.90
17346;DHT22;8790;53.590;10.002;2023-03-04T04:51:43;6.80;99.90
17346;DHT22;8790;53.590;10.002;2023-03-04T04:54:15;6.80;99.90
17346;DHT22;8790;53.590;10.002;2023-03-04T04:56:47;6.90;99.90
17346;DHT22;8790;53.590;10.002;2023-03-04T04:59:20;6.90;99.90
17346;DHT22;8790;53.590;10.002;2023-03-04T05:01:52;6.80;99.90
17346;DHT22;8790;53.590;10.002;2023-03-04T05:04:24;6.80;99.90
17346;DHT22;8790;53.590;10.002;2023-03-04T05:06:55;6.80;99.90
17346;DHT22;8790;53.590;10.002;2023-03-04T05:09:27;6.90;99.90
17346;DHT22;8790;53.590;10.002;2023-03-04T05:11:59;6.90;99.90
17346;DHT22;8790;53.590;10.002;2023-03-04T05:14:32;6.90;99.90
17346;DHT22;8790;53.590;10.002;2023-03-04T05:17:04;6.90;99.90
17346;DHT22;8790;53.590;10.002;2023-03-04T05:19:35;6.90;99.90
17346;DHT22;8790;53.590;10.002;2023-03-04T05:22:07;6.80;99.90
17346;DHT22;8790;53.590;10.002;2023-03-04T05:24:39;6.80;99.90
17346;DHT22;8790;53.590;10.002;2023-03-04T05:27:11;6.80;99.90
17346;DHT22;8790;53.590;10.002;2023-03-04T05:29:44;6.80;99.90
17346;DHT22;8790;53.590;10.002;2023-03-04T05:32:16;6.80;99.90
17346;DHT22;8790;53.590;10.002;2023-03-04T05:34:47;6.80;99.90
17346;DHT22;8790;53.590;10.002;2023-03-04T05:37:19;6.80;99.90
17346;DHT22;8790;53.590;10.002;2023-03-04T05:39:51;6.80;99.90
17346;DHT22;8790;53.590;10.002;2023-03-04T05:42:23;6.80;99.90
17346;DHT22;8790;53.590;10.002;2023-03-04T05:44:56;6.80;99.90
17346;DHT22;8790;53.590;10.002;2023-03-04T05:47:27;6.70;99.90
17346;DHT22;8790;53.590;10.002;2023-03-04T05:49:59;6.70;99.90
17346;DHT22;8790;53.590;10.002;2023-03-04T05:52:31;6.70;99.90
17346;DHT22;8790;53.590;10.002;2023-03-04T05:55:03;6.70;99.90
17346;DHT22;8790;53.590;10.002;2023-03-04T05:57:35;6.60;99.90
17346;DHT22;8790;53.590;10.002;2023-03-04T06:00:10;6.70;99.90
17346;DHT22;8790;53.590;10.002;2023-03-04T06:02:45;6.60;99.90
17346;DHT22;8790;53.590;10.002;2023-03-04T06:05:18;6.60;99.90
17346;DHT22;8790;53.590;10.002;2023-03-04T06:07:49;6.60;99.90
17346;DHT22;8790;53.590;10.002;2023-03-04T06:10:21;6.60;99.90
17346;DHT22;8790;53.590;10.002;2023-03-04T06:12:53;6.50;99.90
17346;DHT22;8790;53.590;10.002;2023-03-04T06:15:26;6.50;99.90
17346;DHT22;8790;53.590;10.002;2023-03-04T06:17:58;6.50;99.90
17346;DHT22;8790;53.590;10.002;2023-03-04T06:20:29;6.50;99.90
17346;DHT22;8790;53.590;10.002;2023-03-04T06:23:02;6.50;99.90
17346;DHT22;8790;53.590;10.002;2023-03-04T06:25:34;6.40;99.90
17346;DHT22;8790;53.590;10.002;2023-03-04T06:28:06;6.40;99.90
17346;DHT22;8790;53.590;10.002;2023-03-04T06:30:39;6.40;99.90
17346;DHT22;8790;53.590;10.002;2023-03-04T06:33:10;6.30;99.90
17346;DHT22;8790;53.590;10.002;2023-03-04T06:35:42;6.30;99.90
17346;DHT22;8790;53.590;10.002;2023-03-04T06:38:14;6.20;99.90
17346;DHT22;8790;53.590;10.002;2023-03-04T06:40:46;6.20;99.90
17346;DHT22;8790;53.590;10.002;2023-03-04T06:43:18;6.20;99.90
17346;DHT22;8790;53.590;10.002;2023-03-04T06:45:51;6.30;99.90
17346;DHT22;8790;53.590;10.002;2023-03-04T06:48:23;6.30;99.90
17346;DHT22;8790;53.590;10.002;2023-03-04T06:50:55;6.30;99.90
17346;DHT22;8790;53.590;10.002;2023-03-04T06:53:26;6.20;99.90
17346;DHT22;8790;53.590;10.002;2023-03-04T06:55:58;6.20;99.90
17346;DHT22;8790;53.590;10.002;2023-03-04T06:58:30;6.20;99.90
17346;DHT22;8790;53.590;10.002;2023-03-04T07:01:11;6.20;99.90
17346;DHT22;8790;53.590;10.002;2023-03-04T07:03:43;6.10;99.90
17346;DHT22;8790;53.590;10.002;2023-03-04T07:06:17;6.10;99.90
17346;DHT22;8790;53.590;10.002;2023-03-04T07:08:49;6.10;99.90
17346;DHT22;8790;53.590;10.002;2023-03-04T07:11:22;6.10;99.90
17346;DHT22;8790;53.590;10.002;2023-03-04T07:13:53;6.10;99.90
17346;DHT22;8790;53.590;10.002;2023-03-04T07:16:27;6.10;99.90
17346;DHT22;8790;53.590;10.002;2023-03-04T07:18:58;6.20;99.90
17346;DHT22;8790;53.590;10.002;2023-03-04T07:21:33;6.20;99.90
17346;DHT22;8790;53.590;10.002;2023-03-04T07:24:05;6.10;99.90
17346;DHT22;8790;53.590;10.002;2023-03-04T07:26:37;6.10;99.90
17346;DHT22;8790;53.590;10.002;2023-03-04T07:29:09;6.20;99.90
17346;DHT22;8790;53.590;10.002;2023-03-04T07:31:42;6.20;99.90
17346;DHT22;8790;53.590;10.002;2023-03-04T07:34:14;6.20;99.90
17346;DHT22;8790;53.590;10.002;2023-03-04T07:36:47;6.30;99.90
17346;DHT22;8790;53.590;10.002;2023-03-04T07:39:19;6.30;99.90
17346;DHT22;8790;53.590;10.002;2023-03-04T07:41:51;6.30;99.90
17346;DHT22;8790;53.590;10.002;2023-03-04T07:44:22;6.20;99.90
17346;DHT22;8790;53.590;10.002;2023-03-04T07:46:55;6.30;99.90
17346;DHT22;8790;53.590;10.002;2023-03-04T07:49:27;6.20;99.90
17346;DHT22;8790;53.590;10.002;2023-03-04T07:52:02;6.20;99.90
17346;DHT22;8790;53.590;10.002;2023-03-04T07:54:34;6.20;99.90
17346;DHT22;8790;53.590;10.002;2023-03-04T07:57:05;6.20;99.90
17346;DHT22;8790;53.590;10.002;2023-03-04T07:59:37;6.20;99.90
17346;DHT22;8790;53.590;10.002;2023-03-04T08:02:10;6.20;99.90
17346;DHT22;8790;53.590;10.002;2023-03-04T08:04:42;6.20;99.90
17346;DHT22;8790;53.590;10.002;2023-03-04T08:07:14;6.20;99.90
17346;DHT22;8790;53.590;10.002;2023-03-04T08:09:47;6.10;99.90
17346;DHT22;8790;53.590;10.002;2023-03-04T08:12:19;6.10;99.90
17346;DHT22;8790;53.590;10.002;2023-03-04T08:14:51;6.20;99.90
17346;DHT22;8790;53.590;10.002;2023-03-04T08:17:24;6.20;99.90
17346;DHT22;8790;53.590;10.002;2023-03-04T08:19:59;6.20;99.90
17346;DHT22;8790;53.590;10.002;2023-03-04T08:22:30;6.20;99.90
17346;DHT22;8790;53.590;10.002;2023-03-04T08:25:02;6.20;99.90
17346;DHT22;8790;53.590;10.002;2023-03-04T08:27:34;6.20;99.90
17346;DHT22;8790;53.590;10.002;2023-03-04T08:30:07;6.20;99.90
17346;DHT22;8790;53.590;10.002;2023-03-04T08:32:41;6.30;99.90
17346;DHT22;8790;53.590;10.002;2023-03-04T08:35:12;6.20;99.90
17346;DHT22;8790;53.590;10.002;2023-03-04T08:37:44;6.20;99.90
17346;DHT22;8790;53.590;10.002;2023-03-04T08:40:16;6.20;99.90
17346;DHT22;8790;53.590;10.002;2023-03-04T08:42:48;6.10;99.90
17346;DHT22;8790;53.590;10.002;2023-03-04T08:45:20;6.20;99.90
17346;DHT22;8790;53.590;10.002;2023-03-04T08:47:53;6.20;99.90
17346;DHT22;8790;53.590;10.002;2023-03-04T08:50:25;6.20;99.90
17346;DHT22;8790;53.590;10.002;2023-03-04T08:52:58;6.10;99.90
17346;DHT22;8790;53.590;10.002;2023-03-04T08:55:29;6.20;99.90
17346;DHT22;8790;53.590;10.002;2023-03-04T08:58:01;6.20;99.90
17346;DHT22;8790;53.590;10.002;2023-03-04T09:00:35;6.10;99.90
17346;DHT22;8790;53.590;10.002;2023-03-04T09:03:09;6.10;99.90
17346;DHT22;8790;53.590;10.002;2023-03-04T09:05:43;6.10;99.90
17346;DHT22;8790;53.590;10.002;2023-03-04T09:08:15;6.20;99.90
17346;DHT22;8790;53.590;10.002;2023-03-04T09:10:51;6.20;99.90
17346;DHT22;8790;53.590;10.002;2023-03-04T09:13:24;6.20;99.90
17346;DHT22;8790;53.590;10.002;2023-03-04T09:15:56;6.20;99.90
17346;DHT22;8790;53.590;10.002;2023-03-04T09:18:29;6.10;99.90
17346;DHT22;8790;53.590;10.002;2023-03-04T09:21:01;6.10;99.90
17346;DHT22;8790;53.590;10.002;2023-03-04T09:23:33;6.20;99.90
17346;DHT22;8790;53.590;10.002;2023-03-04T09:26:13;6.20;99.90
17346;DHT22;8790;53.590;10.002;2023-03-04T09:28:49;6.20;99.90
17346;DHT22;8790;53.590;10.002;2023-03-04T09:31:21;6.10;99.90
17346;DHT22;8790;53.590;10.002;2023-03-04T09:33:56;6.00;99.90
17346;DHT22;8790;53.590;10.002;2023-03-04T09:36:28;6.00;99.90
17346;DHT22;8790;53.590;10.002;2023-03-04T09:39:03;6.00;99.90
17346;DHT22;8790;53.590;10.002;2023-03-04T09:41:40;6.10;99.90
17346;DHT22;8790;53.590;10.002;2023-03-04T09:44:19;6.10;99.90
17346;DHT22;8790;53.590;10.002;2023-03-04T09:46:56;6.20;99.90
17346;DHT22;8790;53.590;10.002;2023-03-04T09:49:31;6.10;99.90
17346;DHT22;8790;53.590;10.002;2023-03-04T09:55:04;6.10;99.90
17346;DHT22;8790;53.590;10.002;2023-03-04T09:57:44;6.10;99.90
17346;DHT22;8790;53.590;10.002;2023-03-04T10:00:20;6.10;99.90
17346;DHT22;8790;53.590;10.002;2023-03-04T10:03:04;6.10;99.90
17346;DHT22;8790;53.590;10.002;2023-03-04T10:05:42;6.20;99.90
17346;DHT22;8790;53.590;10.002;2023-03-04T10:08:33;6.20;99.90
17346;DHT22;8790;53.590;10.002;2023-03-04T10:11:12;6.20;99.90
17346;DHT22;8790;53.590;10.002;2023-03-04T10:13:53;6.20;99.90
17346;DHT22;8790;53.590;10.002;2023-03-04T10:16:31;6.30;99.90
17346;DHT22;8790;53.590;10.002;2023-03-04T10:19:20;6.20;99.90
17346;DHT22;8790;53.590;10.002;2023-03-04T10:22:14;6.30;99.90
17346;DHT22;8790;53.590;10.002;2023-03-04T10:24:47;6.40;99.90
17346;DHT22;8790;53.590;10.002;2023-03-04T10:27:19;6.40;99.90
17346;DHT22;8790;53.590;10.002;2023-03-04T10:29:53;6.40;99.90
17346;DHT22;8790;53.590;10.002;2023-03-04T10:32:25;6.50;99.90
17346;DHT22;8790;53.590;10.002;2023-03-04T10:34:56;6.40;99.90
17346;DHT22;8790;53.590;10.002;2023-03-04T10:37:44;6.50;99.90
17346;DHT22;8790;53.590;10.002;2023-03-04T10:40:20;6.50;99.90
17346;DHT22;8790;53.590;10.002;2023-03-04T10:42:53;6.50;99.90
17346;DHT22;8790;53.590;10.002;2023-03-04T10:45:26;6.50;99.90
17346;DHT22;8790;53.590;10.002;2023-03-04T10:48:05;6.60;99.90
17346;DHT22;8790;53.590;10.002;2023-03-04T10:50:40;6.60;99.90
17346;DHT22;8790;53.590;10.002;2023-03-04T10:53:24;6.60;99.90
17346;DHT22;8790;53.590;10.002;2023-03-04T10:55:57;6.60;99.90
17346;DHT22;8790;53.590;10.002;2023-03-04T10:58:29;6.60;99.90
17346;DHT22;8790;53.590;10.002;2023-03-04T11:01:03;6.60;99.90
17346;DHT22;8790;53.590;10.002;2023-03-04T11:03:36;6.60;99.90
17346;DHT22;8790;53.590;10.002;2023-03-04T11:06:17;6.60;99.90
17346;DHT22;8790;53.590;10.002;2023-03-04T11:08:55;6.60;99.90
17346;DHT22;8790;53.590;10.002;2023-03-04T11:11:30;6.70;99.90
17346;DHT22;8790;53.590;10.002;2023-03-04T11:14:14;6.70;99.90
17346;DHT22;8790;53.590;10.002;2023-03-04T11:16:56;6.70;99.90
17346;DHT22;8790;53.590;10.002;2023-03-04T11:19:30;6.80;99.90
17346;DHT22;8790;53.590;10.002;2023-03-04T11:22:06;6.90;99.90
17346;DHT22;8790;53.590;10.002;2023-03-04T11:24:39;6.80;99.90
17346;DHT22;8790;53.590;10.002;2023-03-04T11:27:14;6.80;99.90
17346;DHT22;8790;53.590;10.002;2023-03-04T11:29:51;6.80;99.90
17346;DHT22;8790;53.590;10.002;2023-03-04T11:32:31;6.70;99.90
17346;DHT22;8790;53.590;10.002;2023-03-04T11:35:11;6.80;99.90
17346;DHT22;8790;53.590;10.002;2023-03-04T11:37:47;6.90;99.90
17346;DHT22;8790;53.590;10.002;2023-03-04T11:40:28;7.00;99.90
17346;DHT22;8790;53.590;10.002;2023-03-04T11:43:06;7.00;99.90
17346;DHT22;8790;53.590;10.002;2023-03-04T11:46:04;6.90;99.90
17346;DHT22;8790;53.590;10.002;2023-03-04T11:48:48;6.90;99.90
17346;DHT22;8790;53.590;10.002;2023-03-04T11:51:27;7.10;99.90
17346;DHT22;8790;53.590;10.002;2023-03-04T11:54:20;7.10;99.90
17346;DHT22;8790;53.590;10.002;2023-03-04T11:56:58;7.10;99.90
17346;DHT22;8790;53.590;10.002;2023-03-04T11:59:44;7.10;99.90
17346;DHT22;8790;53.590;10.002;2023-03-04T12:02:19;7.20;99.90
17346;DHT22;8790;53.590;10.002;2023-03-04T12:05:19;7.30;99.90
17346;DHT22;8790;53.590;10.002;2023-03-04T12:08:24;7.30;99.90
17346;DHT22;8790;53.590;10.002;2023-03-04T12:11:02;7.30;99.90
17346;DHT22;8790;53.590;10.002;2023-03-04T12:13:53;7.30;99.90
17346;DHT22;8790;53.590;10.002;2023-03-04T12:16:40;7.20;99.90
17346;DHT22;8790;53.590;10.002;2023-03-04T12:19:26;7.30;99.90
17346;DHT22;8790;53.590;10.002;2023-03-04T12:22:18;7.40;99.90
17346;DHT22;8790;53.590;10.002;2023-03-04T12:28:06;7.50;99.90
17346;DHT22;8790;53.590;10.002;2023-03-04T12:30:50;7.50;99.90
17346;DHT22;8790;53.590;10.002;2023-03-04T12:33:32;7.40;99.90
17346;DHT22;8790;53.590;10.002;2023-03-04T12:36:12;7.30;99.90
17346;DHT22;8790;53.590;10.002;2023-03-04T12:39:09;7.30;99.90
17346;DHT22;8790;53.590;10.002;2023-03-04T12:41:50;7.40;99.90
17346;DHT22;8790;53.590;10.002;2023-03-04T12:44:28;7.30;99.90
17346;DHT22;8790;53.590;10.002;2023-03-04T12:47:12;7.20;99.90
17346;DHT22;8790;53.590;10.002;2023-03-04T12:49:57;7.30;99.90
17346;DHT22;8790;53.590;10.002;2023-03-04T12:52:41;7.30;99.90
17346;DHT22;8790;53.590;10.002;2023-03-04T12:55:17;7.30;99.90
17346;DHT22;8790;53.590;10.002;2023-03-04T12:57:50;7.50;99.90
17346;DHT22;8790;53.590;10.002;2023-03-04T13:00:31;7.60;99.90
17346;DHT22;8790;53.590;10.002;2023-03-04T13:03:10;7.70;99.90
17346;DHT22;8790;53.590;10.002;2023-03-04T13:06:03;7.70;99.90
17346;DHT22;8790;53.590;10.002;2023-03-04T13:08:43;7.60;99.90
17346;DHT22;8790;53.590;10.002;2023-03-04T13:14:32;7.50;99.90
17346;DHT22;8790;53.590;10.002;2023-03-04T13:17:35;7.50;99.90
17346;DHT22;8790;53.590;10.002;2023-03-04T13:20:19;7.50;99.90
17346;DHT22;8790;53.590;10.002;2023-03-04T13:22:54;7.50;99.90
17346;DHT22;8790;53.590;10.002;2023-03-04T13:25:35;7.60;99.90
17346;DHT22;8790;53.590;10.002;2023-03-04T13:28:27;7.60;99.90
17346;DHT22;8790;53.590;10.002;2023-03-04T13:31:16;7.70;99.90
17346;DHT22;8790;53.590;10.002;2023-03-04T13:33:57;7.70;99.90
17346;DHT22;8790;53.590;10.002;2023-03-04T13:39:33;7.70;99.90
17346;DHT22;8790;53.590;10.002;2023-03-04T13:42:36;7.70;99.90
17346;DHT22;8790;53.590;10.002;2023-03-04T13:45:28;7.60;99.90
17346;DHT22;8790;53.590;10.002;2023-03-04T13:48:01;7.60;99.90
17346;DHT22;8790;53.590;10.002;2023-03-04T13:50:44;7.60;99.90
17346;DHT22;8790;53.590;10.002;2023-03-04T13:53:36;7.60;99.90
17346;DHT22;8790;53.590;10.002;2023-03-04T13:56:23;7.50;99.90
17346;DHT22;8790;53.590;10.002;2023-03-04T13:59:14;7.50;99.90
17346;DHT22;8790;53.590;10.002;2023-03-04T14:02:01;7.50;99.90
17346;DHT22;8790;53.590;10.002;2023-03-04T14:04:35;7.60;99.90
17346;DHT22;8790;53.590;10.002;2023-03-04T14:07:18;7.50;99.90
17346;DHT22;8790;53.590;10.002;2023-03-04T14:10:00;7.60;99.90
17346;DHT22;8790;53.590;10.002;2023-03-04T14:12:36;7.40;99.90
17346;DHT22;8790;53.590;10.002;2023-03-04T14:15:20;7.40;99.90
17346;DHT22;8790;53.590;10.002;2023-03-04T14:17:54;7.40;99.90
17346;DHT22;8790;53.590;10.002;2023-03-04T14:20:28;7.30;99.90
17346;DHT22;8790;53.590;10.002;2023-03-04T14:23:02;7.30;99.90
17346;DHT22;8790;53.590;10.002;2023-03-04T14:25:36;7.30;99.90
17346;DHT22;8790;53.590;10.002;2023-03-04T14:28:11;7.30;99.90
17346;DHT22;8790;53.590;10.002;2023-03-04T14:30:49;7.30;99.90
17346;DHT22;8790;53.590;10.002;2023-03-04T14:33:23;7.20;99.90
17346;DHT22;8790;53.590;10.002;2023-03-04T14:35:58;7.20;99.90
17346;DHT22;8790;53.590;10.002;2023-03-04T14:38:32;7.20;99.90
17346;DHT22;8790;53.590;10.002;2023-03-04T14:41:09;7.20;99.90
17346;DHT22;8790;53.590;10.002;2023-03-04T14:43:51;7.20;99.90
17346;DHT22;8790;53.590;10.002;2023-03-04T14:46:29;7.20;99.90
17346;DHT22;8790;53.590;10.002;2023-03-04T14:49:02;7.20;99.90
17346;DHT22;8790;53.590;10.002;2023-03-04T14:51:43;7.20;99.90
17346;DHT22;8790;53.590;10.002;2023-03-04T14:54:30;7.20;99.90
17346;DHT22;8790;53.590;10.002;2023-03-04T14:57:22;7.10;99.90
17346;DHT22;8790;53.590;10.002;2023-03-04T14:59:55;7.10;99.90
17346;DHT22;8790;53.590;10.002;2023-03-04T15:02:28;7.10;99.90
17346;DHT22;8790;53.590;10.002;2023-03-04T15:05:07;7.20;99.90
17346;DHT22;8790;53.590;10.002;2023-03-04T15:07:40;7.20;99.90
17346;DHT22;8790;53.590;10.002;2023-03-04T15:10:12;7.10;99.90
17346;DHT22;8790;53.590;10.002;2023-03-04T15:12:50;7.00;99.90
17346;DHT22;8790;53.590;10.002;2023-03-04T15:15:35;7.00;99.90
17346;DHT22;8790;53.590;10.002;2023-03-04T15:18:20;7.00;99.90
17346;DHT22;8790;53.590;10.002;2023-03-04T15:20:55;7.00;99.90
17346;DHT22;8790;53.590;10.002;2023-03-04T15:23:29;7.00;99.90
17346;DHT22;8790;53.590;10.002;2023-03-04T15:26:02;7.00;99.90
17346;DHT22;8790;53.590;10.002;2023-03-04T15:28:38;7.00;99.90
17346;DHT22;8790;53.590;10.002;2023-03-04T15:31:15;7.00;99.90
17346;DHT22;8790;53.590;10.002;2023-03-04T15:33:47;6.90;99.90
17346;DHT22;8790;53.590;10.002;2023-03-04T15:36:21;6.70;99.90
17346;DHT22;8790;53.590;10.002;2023-03-04T15:38:53;6.70;99.90
17346;DHT22;8790;53.590;10.002;2023-03-04T15:41:25;6.80;99.90
17346;DHT22;8790;53.590;10.002;2023-03-04T15:43:58;6.70;99.90
17346;DHT22;8790;53.590;10.002;2023-03-04T15:46:30;6.70;99.90
17346;DHT22;8790;53.590;10.002;2023-03-04T15:49:02;6.70;99.90
17346;DHT22;8790;53.590;10.002;2023-03-04T15:51:34;6.60;99.90
17346;DHT22;8790;53.590;10.002;2023-03-04T15:54:10;6.70;99.90
17346;DHT22;8790;53.590;10.002;2023-03-04T15:56:43;6.70;99.90
17346;DHT22;8790;53.590;10.002;2023-03-04T15:59:17;6.60;99.90
17346;DHT22;8790;53.590;10.002;2023-03-04T16:01:49;6.50;99.90
17346;DHT22;8790;53.590;10.002;2023-03-04T16:04:21;6.50;99.90
17346;DHT22;8790;53.590;10.002;2023-03-04T16:06:53;6.50;99.90
17346;DHT22;8790;53.590;10.002;2023-03-04T16:09:28;6.60;99.90
17346;DHT22;8790;53.590;10.002;2023-03-04T16:12:00;6.60;99.90
17346;DHT22;8790;53.590;10.002;2023-03-04T16:14:33;6.60;99.90
17346;DHT22;8790;53.590;10.002;2023-03-04T16:17:05;6.60;99.90
17346;DHT22;8790;53.590;10.002;2023-03-04T16:19:37;6.60;99.90
17346;DHT22;8790;53.590;10.002;2023-03-04T16:22:12;6.50;99.90
17346;DHT22;8790;53.590;10.002;2023-03-04T16:24:44;6.50;99.90
17346;DHT22;8790;53.590;10.002;2023-03-04T16:27:17;6.40;99.90
17346;DHT22;8790;53.590;10.002;2023-03-04T16:29:50;6.50;99.90
17346;DHT22;8790;53.590;10.002;2023-03-04T16:32:22;6.40;99.90
17346;DHT22;8790;53.590;10.002;2023-03-04T16:34:54;6.40;99.90
17346;DHT22;8790;53.590;10.002;2023-03-04T16:37:26;6.40;99.90
17346;DHT22;8790;53.590;10.002;2023-03-04T16:39:58;6.40;99.90
17346;DHT22;8790;53.590;10.002;2023-03-04T16:42:30;6.40;99.90
17346;DHT22;8790;53.590;10.002;2023-03-04T16:45:03;6.30;99.90
17346;DHT22;8790;53.590;10.002;2023-03-04T16:47:35;6.30;99.90